Terminal Aerodrome Forecast
Issued by NWS Upton, NY

Home | Current Version | Previous Version | Text Only | Print | Product List | Glossary On
Versions: 1 2 3 4 5 6 7 8 9 10 11 12 13 14 15 16 17 18 19 20 21 22 23 24 25 26 27 28 29 30 31 32 33 34
130
FTUS41 KOKX 292340
TAFJFK
TAF
KJFK 292340Z 3000/3106 16010KT P6SM BKN006 BKN070 BKN100
     FM300300 18007KT 3SM SHRA BR SCT004 BKN007 OVC015
     FM300700 18007KT 2SM SHRA BR OVC004
      TEMPO 3010/3014 1SM +SHRA BR
     FM301800 19011KT 2SM SHRA BR BKN006
     FM302200 18011KT 4SM -SHRA BR SCT006 BKN009
     FM310200 VRB04KT 4SM BR SCT009 BKN015=

USA.gov is the U.S. government's official web portal to all federal, state and local government web resources and services.